Time,TemperatureF,DewpointF,PressureIn,WindDirection,WindDirectionDegrees,WindSpeedMPH,WindSpeedGustMPH,Humidity,HourlyPrecipIn,Conditions,Clouds,dailyrainin,SoftwareType,DateUTC
2013-02-17 00:00:00,26.2,18.1,30.21,NW,306,0.0,2.0,71,0.00,CLR,,0.00,WeatherDisplay:10.37,2013-02-17 05:00:00,
2013-02-17 00:10:00,26.4,17.0,30.21,North,8,0.0,5.0,67,0.00,SCT,,0.00,WeatherDisplay:10.37,2013-02-17 05:10:00,
2013-02-17 00:20:00,26.2,16.0,30.21,NNW,346,1.0,3.0,65,0.00,SCT,,0.00,WeatherDisplay:10.37,2013-02-17 05:20:00,
2013-02-17 00:30:00,26.5,14.9,30.21,North,2,0.0,3.0,61,0.00,SCT,,0.00,WeatherDisplay:10.37,2013-02-17 05:30:00,
2013-02-17 00:40:00,26.9,14.5,30.21,NNE,24,1.0,3.0,59,0.00,CLR,,0.00,WeatherDisplay:10.37,2013-02-17 05:40:00,
2013-02-17 00:50:00,27.4,13.7,30.21,North,5,1.0,7.0,56,0.00,SCT,,0.00,WeatherDisplay:10.37,2013-02-17 05:50:00,
2013-02-17 01:00:00,27.4,13.7,30.21,NNW,343,1.0,4.0,56,0.00,SCT,,0.00,WeatherDisplay:10.37,2013-02-17 06:00:00,
2013-02-17 01:10:00,26.8,14.4,30.22,West,279,1.0,5.0,59,0.00,CLR,,0.00,WeatherDisplay:10.37,2013-02-17 06:10:00,
2013-02-17 01:20:00,25.9,13.9,30.22,West,265,1.0,3.0,60,0.00,CLR,,0.00,WeatherDisplay:10.37,2013-02-17 06:20:00,
2013-02-17 01:30:00,25.8,14.2,30.22,West,268,1.0,3.0,61,0.00,CLR,,0.00,WeatherDisplay:10.37,2013-02-17 06:30:00,
2013-02-17 01:40:00,25.4,13.8,30.23,West,268,1.0,3.0,61,0.00,SCT,,0.00,WeatherDisplay:10.37,2013-02-17 06:40:00,
2013-02-17 01:50:00,25.1,13.2,30.23,West,268,3.0,4.0,60,0.00,SCT,,0.00,WeatherDisplay:10.37,2013-02-17 06:50:00,
2013-02-17 02:00:00,25.1,13.2,30.23,West,268,0.0,3.0,60,0.00,SCT,,0.00,WeatherDisplay:10.37,2013-02-17 07:00:00,
2013-02-17 02:10:00,24.7,14.2,30.23,West,268,0.0,2.0,64,0.00,CLR,,0.00,WeatherDisplay:10.37,2013-02-17 07:10:00,
2013-02-17 02:20:00,24.3,13.9,30.23,West,268,0.0,2.0,64,0.00,CLR,,0.00,WeatherDisplay:10.37,2013-02-17 07:20:00,
2013-02-17 02:30:00,24.2,13.8,30.23,West,268,0.0,1.0,64,0.00,CLR,,0.00,WeatherDisplay:10.37,2013-02-17 07:30:00,
2013-02-17 02:40:00,24.0,14.3,30.23,West,268,0.0,1.0,66,0.00,SCT,,0.00,WeatherDisplay:10.37,2013-02-17 07:40:00,
2013-02-17 02:50:00,23.7,14.7,30.23,West,268,0.0,1.0,68,0.00,SCT,,0.00,WeatherDisplay:10.37,2013-02-17 07:50:00,
2013-02-17 03:00:00,23.5,14.5,30.23,West,268,0.0,1.0,68,0.00,SCT,,0.00,WeatherDisplay:10.37,2013-02-17 08:00:00,
2013-02-17 03:10:00,23.2,14.9,30.23,West,268,0.0,1.0,70,0.00,CLR,,0.00,WeatherDisplay:10.37,2013-02-17 08:10:00,
2013-02-17 03:20:00,22.9,15.2,30.23,West,268,0.0,0.0,72,0.00,CLR,,0.00,WeatherDisplay:10.37,2013-02-17 08:20:00,
2013-02-17 03:30:00,22.5,15.5,30.24,West,268,0.0,1.0,74,0.00,CLR,,0.00,WeatherDisplay:10.37,2013-02-17 08:30:00,
2013-02-17 03:40:00,22.3,15.3,30.24,West,268,0.0,0.0,74,0.00,CLR,,0.00,WeatherDisplay:10.37,2013-02-17 08:40:00,
2013-02-17 03:50:00,22.2,15.2,30.24,West,268,0.0,1.0,74,0.00,CLR,,0.00,WeatherDisplay:10.37,2013-02-17 08:50:00,
2013-02-17 04:00:00,22.0,15.0,30.24,West,268,0.0,0.0,74,0.00,CLR,,0.00,WeatherDisplay:10.37,2013-02-17 09:00:00,
2013-02-17 04:10:00,21.8,15.4,30.24,West,268,0.0,1.0,76,0.00,SCT,,0.00,WeatherDisplay:10.37,2013-02-17 09:10:00,
2013-02-17 04:20:00,21.8,14.5,30.24,West,268,0.0,1.0,73,0.00,SCT,,0.00,WeatherDisplay:10.37,2013-02-17 09:20:00,
2013-02-17 04:30:00,22.7,14.4,30.25,West,268,0.0,2.0,70,0.00,SCT,,0.00,WeatherDisplay:10.37,2013-02-17 09:30:00,
2013-02-17 04:40:00,22.4,16.2,30.24,West,268,0.0,1.0,77,0.00,SCT,,0.00,WeatherDisplay:10.37,2013-02-17 09:40:00,
2013-02-17 04:50:00,21.9,14.9,30.25,West,268,1.0,2.0,74,0.00,CLR,,0.00,WeatherDisplay:10.37,2013-02-17 09:50:00,
2013-02-17 05:00:00,22.2,13.9,30.24,West,268,0.0,2.0,70,0.00,CLR,,0.00,WeatherDisplay:10.37,2013-02-17 10:00:00,
2013-02-17 05:10:00,22.7,13.3,30.24,West,268,1.0,2.0,67,0.00,SCT,,0.00,WeatherDisplay:10.37,2013-02-17 10:10:00,
2013-02-17 05:20:00,23.0,13.3,30.25,West,268,0.0,2.0,66,0.00,SCT,,0.00,WeatherDisplay:10.37,2013-02-17 10:20:00,
2013-02-17 05:30:00,22.7,13.7,30.24,West,268,0.0,1.0,68,0.00,SCT,,0.00,WeatherDisplay:10.37,2013-02-17 10:30:00,
2013-02-17 05:40:00,22.4,13.7,30.25,West,268,0.0,1.0,69,0.00,SCT,,0.00,WeatherDisplay:10.37,2013-02-17 10:40:00,
2013-02-17 05:50:00,22.1,14.1,30.25,West,268,0.0,1.0,71,0.00,SCT,,0.00,WeatherDisplay:10.37,2013-02-17 10:50:00,
2013-02-17 06:00:00,22.0,14.0,30.25,West,268,0.0,1.0,71,0.00,SCT,,0.00,WeatherDisplay:10.37,2013-02-17 11:00:00,
2013-02-17 06:10:00,22.2,13.6,30.26,West,268,0.0,2.0,69,0.00,SCT,,0.00,WeatherDisplay:10.37,2013-02-17 11:10:00,
2013-02-17 06:20:00,22.5,13.2,30.26,West,268,0.0,3.0,67,0.00,SCT,,0.00,WeatherDisplay:10.37,2013-02-17 11:20:00,
2013-02-17 06:30:00,23.0,14.0,30.26,West,268,2.0,4.0,68,0.00,SCT,,0.00,WeatherDisplay:10.37,2013-02-17 11:30:00,
2013-02-17 06:40:00,23.1,13.1,30.27,West,268,0.0,3.0,65,0.00,SCT,,0.00,WeatherDisplay:10.37,2013-02-17 11:40:00,
2013-02-17 06:50:00,22.7,12.7,30.27,West,268,0.0,3.0,65,0.00,SCT,,0.00,WeatherDisplay:10.37,2013-02-17 11:50:00,
2013-02-17 07:00:00,22.6,12.6,30.27,West,268,0.0,3.0,65,0.00,SCT,,0.00,WeatherDisplay:10.37,2013-02-17 12:00:00,
2013-02-17 07:10:00,22.6,12.2,30.27,West,268,1.0,3.0,64,0.00,SCT,,0.00,WeatherDisplay:10.37,2013-02-17 12:10:00,
2013-02-17 07:20:00,23.0,12.3,30.28,West,268,2.0,4.0,63,0.00,SCT,,0.00,WeatherDisplay:10.37,2013-02-17 12:20:00,
2013-02-17 07:30:00,23.3,12.6,30.28,West,268,1.0,4.0,63,0.00,SCT,,0.00,WeatherDisplay:10.37,2013-02-17 12:30:00,
2013-02-17 07:40:00,23.5,12.7,30.29,West,268,3.0,5.0,63,0.00,SCT,,0.00,WeatherDisplay:10.37,2013-02-17 12:40:00,
2013-02-17 07:50:00,24.9,12.2,30.29,West,266,3.0,6.0,58,0.00,CLR,,0.00,WeatherDisplay:10.37,2013-02-17 12:50:00,
2013-02-17 08:00:00,25.9,12.7,30.30,West,268,3.0,5.0,57,0.00,CLR,,0.00,WeatherDisplay:10.37,2013-02-17 13:00:00,
2013-02-17 08:10:00,26.6,12.6,30.30,SW,236,5.0,6.0,55,0.00,CLR,,0.00,WeatherDisplay:10.37,2013-02-17 13:10:00,
2013-02-17 08:20:00,27.4,13.3,30.31,SW,216,2.0,6.0,55,0.00,CLR,,0.00,WeatherDisplay:10.37,2013-02-17 13:20:00,
2013-02-17 08:30:00,27.5,12.6,30.31,SW,224,7.0,9.0,53,0.00,CLR,,0.00,WeatherDisplay:10.37,2013-02-17 13:30:00,
2013-02-17 08:40:00,27.4,12.9,30.32,SW,220,5.0,8.0,54,0.00,CLR,,0.00,WeatherDisplay:10.37,2013-02-17 13:40:00,
2013-02-17 08:50:00,27.7,13.2,30.32,SW,220,5.0,9.0,54,0.00,CLR,,0.00,WeatherDisplay:10.37,2013-02-17 13:50:00,
2013-02-17 09:00:00,28.1,14.0,30.32,SSW,208,3.0,8.0,55,0.00,CLR,,0.00,WeatherDisplay:10.37,2013-02-17 14:00:00,
2013-02-17 09:10:00,29.0,15.2,30.33,SSW,199,2.0,7.0,56,0.00,CLR,,0.00,WeatherDisplay:10.37,2013-02-17 14:10:00,
2013-02-17 09:20:00,29.8,15.2,30.33,SSW,198,3.0,7.0,54,0.00,CLR,,0.00,WeatherDisplay:10.37,2013-02-17 14:20:00,
2013-02-17 09:30:00,30.9,15.3,30.33,SSE,148,2.0,7.0,52,0.00,CLR,,0.00,WeatherDisplay:10.37,2013-02-17 14:30:00,
2013-02-17 09:40:00,31.2,14.7,30.33,ENE,68,2.0,8.0,50,0.00,CLR,,0.00,WeatherDisplay:10.37,2013-02-17 14:40:00,
2013-02-17 09:50:00,32.0,15.9,30.33,NW,307,0.0,4.0,51,0.00,CLR,,0.00,WeatherDisplay:10.37,2013-02-17 14:50:00,
2013-02-17 10:00:00,33.1,16.0,30.33,East,82,1.0,4.0,49,0.00,CLR,,0.00,WeatherDisplay:10.37,2013-02-17 15:00:00,
2013-02-17 10:10:00,33.2,15.1,30.33,NNW,332,2.0,12.0,47,0.00,CLR,,0.00,WeatherDisplay:10.37,2013-02-17 15:10:00,
2013-02-17 10:20:00,33.5,15.4,30.34,WSW,246,0.0,6.0,47,0.00,CLR,,0.00,WeatherDisplay:10.37,2013-02-17 15:20:00,
2013-02-17 10:30:00,34.3,15.1,30.34,NE,54,2.0,9.0,45,0.00,CLR,,0.00,WeatherDisplay:10.37,2013-02-17 15:30:00,
2013-02-17 10:40:00,34.7,15.5,30.34,NNW,343,3.0,10.0,45,0.00,CLR,,0.00,WeatherDisplay:10.37,2013-02-17 15:40:00,
2013-02-17 10:50:00,35.3,14.4,30.34,WSW,239,3.0,14.0,42,0.00,CLR,,0.00,WeatherDisplay:10.37,2013-02-17 15:50:00,
2013-02-17 11:00:00,35.7,16.4,30.34,NE,39,2.0,13.0,45,0.00,CLR,,0.00,WeatherDisplay:10.37,2013-02-17 16:00:00,
2013-02-17 11:10:00,36.1,15.2,30.34,ENE,67,5.0,13.0,42,0.00,CLR,,0.00,WeatherDisplay:10.37,2013-02-17 16:10:00,
2013-02-17 11:20:00,36.4,15.5,30.34,ESE,118,5.0,13.0,42,0.00,CLR,,0.00,WeatherDisplay:10.37,2013-02-17 16:20:00,
2013-02-17 11:30:00,37.1,15.5,30.34,SE,127,3.0,7.0,41,0.00,CLR,,0.00,WeatherDisplay:10.37,2013-02-17 16:30:00,
2013-02-17 11:40:00,37.5,15.3,30.34,SW,230,2.0,12.0,40,0.00,CLR,,0.00,WeatherDisplay:10.37,2013-02-17 16:40:00,
2013-02-17 11:50:00,38.4,16.1,30.34,East,101,5.0,12.0,40,0.00,CLR,,0.00,WeatherDisplay:10.37,2013-02-17 16:50:00,
2013-02-17 12:00:00,38.7,14.6,30.34,ENE,64,3.0,7.0,37,0.00,CLR,,0.00,WeatherDisplay:10.37,2013-02-17 17:00:00,
2013-02-17 12:10:00,38.4,14.9,30.33,NE,52,5.0,15.0,38,0.00,CLR,,0.00,WeatherDisplay:10.37,2013-02-17 17:10:00,
2013-02-17 12:20:00,39.5,15.3,30.33,NE,52,1.0,12.0,37,0.00,CLR,,0.00,WeatherDisplay:10.37,2013-02-17 17:20:00,
2013-02-17 12:30:00,39.5,15.9,30.32,ENE,61,2.0,10.0,38,0.00,CLR,,0.00,WeatherDisplay:10.37,2013-02-17 17:30:00,
2013-02-17 12:40:00,39.7,16.1,30.32,NE,44,2.0,9.0,38,0.00,CLR,,0.00,WeatherDisplay:10.37,2013-02-17 17:40:00,
2013-02-17 12:50:00,39.1,14.4,30.31,ENE,68,3.0,14.0,36,0.00,CLR,,0.00,WeatherDisplay:10.37,2013-02-17 17:50:00,
2013-02-17 13:00:00,40.2,15.3,30.31,East,93,5.0,8.0,36,0.00,CLR,,0.00,WeatherDisplay:10.37,2013-02-17 18:00:00,
2013-02-17 13:10:00,40.5,12.2,30.31,North,356,5.0,10.0,31,0.00,CLR,,0.00,WeatherDisplay:10.37,2013-02-17 18:10:00,
2013-02-17 13:20:00,40.5,15.0,30.30,NE,45,8.0,13.0,35,0.00,CLR,,0.00,WeatherDisplay:10.37,2013-02-17 18:20:00,
2013-02-17 13:30:00,41.6,15.9,30.29,NE,45,7.0,15.0,35,0.00,CLR,,0.00,WeatherDisplay:10.37,2013-02-17 18:30:00,
2013-02-17 13:40:00,40.7,15.2,30.29,NE,50,3.0,14.0,35,0.00,CLR,,0.00,WeatherDisplay:10.37,2013-02-17 18:40:00,
2013-02-17 13:50:00,41.1,15.5,30.28,NE,54,5.0,14.0,35,0.00,CLR,,0.00,WeatherDisplay:10.37,2013-02-17 18:50:00,
2013-02-17 14:00:00,41.4,13.0,30.28,NNE,14,5.0,11.0,31,0.00,CLR,,0.00,WeatherDisplay:10.37,2013-02-17 19:00:00,
2013-02-17 14:10:00,42.0,15.0,30.28,South,180,3.0,12.0,33,0.00,CLR,,0.00,WeatherDisplay:10.37,2013-02-17 19:10:00,
2013-02-17 14:20:00,42.4,14.6,30.27,WNW,296,3.0,8.0,32,0.00,CLR,,0.00,WeatherDisplay:10.37,2013-02-17 19:20:00,
2013-02-17 14:30:00,42.3,15.2,30.27,NNE,20,6.0,17.0,33,0.00,CLR,,0.00,WeatherDisplay:10.37,2013-02-17 19:30:00,
2013-02-17 14:40:00,42.1,15.0,30.27,NNE,27,5.0,12.0,33,0.00,CLR,,0.00,WeatherDisplay:10.37,2013-02-17 19:40:00,
2013-02-17 14:50:00,42.5,17.4,30.26,ENE,68,2.0,7.0,36,0.00,CLR,,0.00,WeatherDisplay:10.37,2013-02-17 19:50:00,
2013-02-17 15:00:00,43.0,15.1,30.27,NNE,30,1.0,10.0,32,0.00,CLR,,0.00,WeatherDisplay:10.37,2013-02-17 20:00:00,
2013-02-17 15:10:00,43.4,15.5,30.26,East,100,3.0,7.0,32,0.00,CLR,,0.00,WeatherDisplay:10.37,2013-02-17 20:10:00,
2013-02-17 15:20:00,44.1,16.1,30.26,North,357,1.0,7.0,32,0.00,CLR,,0.00,WeatherDisplay:10.37,2013-02-17 20:20:00,
2013-02-17 15:30:00,43.1,14.5,30.26,WSW,249,9.0,16.0,31,0.00,CLR,,0.00,WeatherDisplay:10.37,2013-02-17 20:30:00,
2013-02-17 15:40:00,43.8,15.8,30.26,SSW,193,2.0,6.0,32,0.00,CLR,,0.00,WeatherDisplay:10.37,2013-02-17 20:40:00,
2013-02-17 15:50:00,44.0,15.3,30.26,North,0,1.0,5.0,31,0.00,CLR,,0.00,WeatherDisplay:10.37,2013-02-17 20:50:00,
2013-02-17 16:00:00,44.5,16.5,30.25,SW,226,3.0,6.0,32,0.00,CLR,,0.00,WeatherDisplay:10.37,2013-02-17 21:00:00,
2013-02-17 16:10:00,44.5,14.9,30.25,NW,309,6.0,7.0,30,0.00,CLR,,0.00,WeatherDisplay:10.37,2013-02-17 21:10:00,
2013-02-17 16:20:00,44.9,16.0,30.25,South,181,2.0,7.0,31,0.00,CLR,,0.00,WeatherDisplay:10.37,2013-02-17 21:20:00,
2013-02-17 16:30:00,45.1,17.0,30.25,SSW,200,5.0,10.0,32,0.00,CLR,,0.00,WeatherDisplay:10.37,2013-02-17 21:30:00,
2013-02-17 16:40:00,45.0,16.9,30.25,East,82,2.0,5.0,32,0.00,CLR,,0.00,WeatherDisplay:10.37,2013-02-17 21:40:00,
2013-02-17 16:50:00,45.1,15.5,30.25,West,279,5.0,7.0,30,0.00,CLR,,0.00,WeatherDisplay:10.37,2013-02-17 21:50:00,
2013-02-17 17:00:00,45.2,15.6,30.25,South,171,3.0,7.0,30,0.00,CLR,,0.00,WeatherDisplay:10.37,2013-02-17 22:00:00,
2013-02-17 17:10:00,45.0,15.4,30.25,East,89,1.0,8.0,30,0.00,CLR,,0.00,WeatherDisplay:10.37,2013-02-17 22:10:00,
2013-02-17 17:20:00,46.0,16.3,30.25,SSW,212,2.0,4.0,30,0.00,CLR,,0.00,WeatherDisplay:10.37,2013-02-17 22:20:00,
2013-02-17 17:30:00,45.8,16.9,30.25,ENE,63,1.0,4.0,31,0.00,CLR,,0.00,WeatherDisplay:10.37,2013-02-17 22:30:00,
2013-02-17 17:40:00,44.8,16.7,30.25,East,87,0.0,5.0,32,0.00,CLR,,0.00,WeatherDisplay:10.37,2013-02-17 22:40:00,
2013-02-17 17:50:00,44.2,17.6,30.26,SSE,156,0.0,1.0,34,0.00,CLR,,0.00,WeatherDisplay:10.37,2013-02-17 22:50:00,
2013-02-17 18:00:00,43.5,19.6,30.26,South,189,0.0,6.0,38,0.00,CLR,,0.00,WeatherDisplay:10.37,2013-02-17 23:00:00,
2013-02-17 18:10:00,42.2,19.5,30.26,SW,229,1.0,2.0,40,0.00,CLR,,0.00,WeatherDisplay:10.37,2013-02-17 23:10:00,
2013-02-17 18:20:00,41.0,19.6,30.26,SW,230,0.0,1.0,42,0.00,CLR,,0.00,WeatherDisplay:10.37,2013-02-17 23:20:00,
2013-02-17 18:30:00,40.2,18.3,30.26,SW,232,0.0,1.0,41,0.00,CLR,,0.00,WeatherDisplay:10.37,2013-02-17 23:30:00,
2013-02-17 18:40:00,39.5,19.9,30.26,SW,232,0.0,0.0,45,0.00,CLR,,0.00,WeatherDisplay:10.37,2013-02-17 23:40:00,
2013-02-17 18:50:00,38.6,19.1,30.26,SW,232,0.0,0.0,45,0.00,CLR,,0.00,WeatherDisplay:10.37,2013-02-17 23:50:00,
2013-02-17 19:00:00,37.9,18.9,30.27,SW,232,0.0,0.0,46,0.00,CLR,,0.00,WeatherDisplay:10.37,2013-02-18 00:00:00,
2013-02-17 19:10:00,37.2,20.7,30.27,SW,232,0.0,0.0,51,0.00,CLR,,0.00,WeatherDisplay:10.37,2013-02-18 00:10:00,
2013-02-17 19:20:00,36.4,18.1,30.27,SW,232,0.0,0.0,47,0.00,CLR,,0.00,WeatherDisplay:10.37,2013-02-18 00:20:00,
2013-02-17 19:30:00,35.8,17.5,30.27,SW,232,0.0,0.0,47,0.00,CLR,,0.00,WeatherDisplay:10.37,2013-02-18 00:30:00,
2013-02-17 19:40:00,35.4,19.9,30.27,SW,232,0.0,0.0,53,0.00,CLR,,0.00,WeatherDisplay:10.37,2013-02-18 00:40:00,
2013-02-17 19:50:00,34.9,21.2,30.28,SW,232,0.0,1.0,57,0.00,CLR,,0.00,WeatherDisplay:10.37,2013-02-18 00:50:00,
2013-02-17 20:00:00,34.4,21.5,30.28,SW,232,0.0,0.0,59,0.00,CLR,,0.00,WeatherDisplay:10.37,2013-02-18 01:00:00,
2013-02-17 20:10:00,33.9,20.2,30.28,SW,232,0.0,0.0,57,0.00,CLR,,0.00,WeatherDisplay:10.37,2013-02-18 01:10:00,
2013-02-17 20:20:00,33.4,22.9,30.28,SW,232,0.0,1.0,65,0.00,CLR,,0.00,WeatherDisplay:10.37,2013-02-18 01:20:00,
2013-02-17 20:30:00,33.0,22.5,30.28,SW,232,0.0,0.0,65,0.00,CLR,,0.00,WeatherDisplay:10.37,2013-02-18 01:30:00,
2013-02-17 20:40:00,32.5,21.3,30.29,SW,232,0.0,0.0,63,0.00,CLR,,0.00,WeatherDisplay:10.37,2013-02-18 01:40:00,
2013-02-17 20:50:00,32.1,22.4,30.29,SW,232,0.0,1.0,67,0.00,CLR,,0.00,WeatherDisplay:10.37,2013-02-18 01:50:00,
2013-02-17 21:00:00,31.7,21.6,30.29,SW,232,0.0,0.0,66,0.00,CLR,,0.00,WeatherDisplay:10.37,2013-02-18 02:00:00,
2013-02-17 21:10:00,31.4,21.7,30.29,SW,232,0.0,0.0,67,0.00,CLR,,0.00,WeatherDisplay:10.37,2013-02-18 02:10:00,
2013-02-17 21:20:00,31.0,21.3,30.29,SW,232,0.0,0.0,67,0.00,CLR,,0.00,WeatherDisplay:10.37,2013-02-18 02:20:00,
2013-02-17 21:30:00,30.7,21.7,30.29,SW,232,0.0,1.0,69,0.00,CLR,,0.00,WeatherDisplay:10.37,2013-02-18 02:30:00,
2013-02-17 21:39:00,30.5,21.5,30.30,SW,232,0.0,1.0,69,0.00,CLR,,0.00,WeatherDisplay:10.37,2013-02-18 02:39:00,
2013-02-17 21:49:00,30.6,21.6,30.30,SW,232,0.0,0.0,69,0.00,CLR,,0.00,WeatherDisplay:10.37,2013-02-18 02:49:00,
2013-02-17 22:00:00,30.4,22.4,30.30,SW,232,0.0,0.0,72,0.00,CLR,,0.00,WeatherDisplay:10.37,2013-02-18 03:00:00,
2013-02-17 22:09:00,30.1,22.2,30.30,SW,232,1.0,1.0,72,0.00,CLR,,0.00,WeatherDisplay:10.37,2013-02-18 03:09:00,
2013-02-17 22:19:00,30.4,21.4,30.30,SW,232,0.0,1.0,69,0.00,CLR,,0.00,WeatherDisplay:10.37,2013-02-18 03:19:00,
2013-02-17 22:30:00,30.2,22.9,30.30,SW,232,0.0,0.0,74,0.00,CLR,,0.00,WeatherDisplay:10.37,2013-02-18 03:30:00,
2013-02-17 22:39:00,29.7,22.1,30.30,SW,232,0.0,1.0,73,0.00,CLR,,0.00,WeatherDisplay:10.37,2013-02-18 03:39:00,
2013-02-17 22:49:00,29.4,21.8,30.31,SW,232,0.0,1.0,73,0.00,CLR,,0.00,WeatherDisplay:10.37,2013-02-18 03:49:00,
2013-02-17 23:00:00,29.3,22.4,30.30,SW,232,0.0,0.0,75,0.00,CLR,,0.00,WeatherDisplay:10.37,2013-02-18 04:00:00,
2013-02-17 23:09:00,29.2,22.8,30.30,SW,232,0.0,1.0,77,0.00,CLR,,0.00,WeatherDisplay:10.37,2013-02-18 04:09:00,
2013-02-17 23:19:00,29.0,21.8,30.31,SW,232,0.0,0.0,74,0.00,CLR,,0.00,WeatherDisplay:10.37,2013-02-18 04:19:00,
2013-02-17 23:30:00,29.3,22.7,30.30,SW,232,0.0,1.0,76,0.00,CLR,,0.00,WeatherDisplay:10.37,2013-02-18 04:30:00,
2013-02-17 23:39:00,28.9,22.6,30.31,SW,232,0.0,1.0,77,0.00,CLR,,0.00,WeatherDisplay:10.37,2013-02-18 04:39:00,
2013-02-17 23:49:00,29.4,21.8,30.30,SW,232,0.0,1.0,73,0.00,CLR,,0.00,WeatherDisplay:10.37,2013-02-18 04:49:00,